Time;durP1;ratioP1;P1;durP2;ratioP2;P2;SDS_P1;SDS_P2;PMS_P1;PMS_P2;Temp;Humidity;BMP_temperature;BMP_pressure;BME280_temperature;BME280_humidity;BME280_pressure;Samples;Min_cycle;Max_cycle;Signal;HPM_P1;HPM_P2
2022/05/09 00:02:17;;;;;;;5.95;5.13;;;;;;;;;;5036190;28;20055;-50
2022/05/09 00:04:42;;;;;;;7.55;5.40;;;;;;;;;;5053763;28;20422;-50
2022/05/09 00:07:08;;;;;;;6.75;5.60;;;;;;;;;;5053829;28;20031;-48
2022/05/09 00:09:34;;;;;;;8.00;5.60;;;;;;;;;;5053778;28;20063;-49
2022/05/09 00:12:00;;;;;;;7.85;5.68;;;;;;;;;;5053562;28;20039;-48
2022/05/09 00:14:26;;;;;;;7.38;5.82;;;;;;;;;;5053261;28;20033;-48
2022/05/09 00:16:52;;;;;;;9.73;5.45;;;;;;;;;;5053607;28;20025;-50
2022/05/09 00:19:20;;;;;;;7.65;5.32;;;;;;;;;;5053267;28;20346;-47
2022/05/09 00:21:47;;;;;;;8.77;5.80;;;;;;;;;;5053502;28;20029;-51
2022/05/09 00:24:15;;;;;;;8.20;5.40;;;;;;;;;;5053469;28;20388;-47
2022/05/09 00:26:44;;;;;;;7.15;5.40;;;;;;;;;;5053135;28;20028;-50
2022/05/09 00:29:14;;;;;;;9.07;5.60;;;;;;;;;;5053417;28;20032;-47
2022/05/09 00:31:43;;;;;;;9.13;5.20;;;;;;;;;;5053355;28;20167;-51
2022/05/09 00:34:10;;;;;;;8.45;5.90;;;;;;;;;;5052938;28;20025;-47
2022/05/09 00:36:37;;;;;;;8.20;6.00;;;;;;;;;;5053295;28;20025;-49
2022/05/09 00:39:03;;;;;;;6.40;5.47;;;;;;;;;;5052912;28;20075;-48
2022/05/09 00:41:31;;;;;;;15.38;6.20;;;;;;;;;;5052919;28;20056;-47
2022/05/09 00:43:59;;;;;;;8.98;5.90;;;;;;;;;;5053099;28;20027;-47
2022/05/09 00:46:25;;;;;;;10.05;5.97;;;;;;;;;;5053130;28;20021;-47
2022/05/09 00:48:51;;;;;;;7.15;6.10;;;;;;;;;;5052695;28;20079;-47
2022/05/09 00:51:21;;;;;;;8.93;6.28;;;;;;;;;;5034860;28;20032;-47
2022/05/09 00:53:48;;;;;;;8.43;6.00;;;;;;;;;;5052342;28;20383;-50
2022/05/09 00:56:19;;;;;;;9.15;5.78;;;;;;;;;;5052640;28;20033;-48
2022/05/09 00:58:55;;;;;;;8.23;6.30;;;;;;;;;;5052318;28;20049;-48
2022/05/09 01:01:21;;;;;;;9.65;6.68;;;;;;;;;;5052774;28;20142;-47
2022/05/09 01:03:53;;;;;;;7.55;5.78;;;;;;;;;;5052472;28;20464;-48
2022/05/09 01:06:18;;;;;;;8.82;5.60;;;;;;;;;;5052429;28;20029;-50
2022/05/09 01:08:44;;;;;;;9.38;5.78;;;;;;;;;;5051014;28;20033;-50
2022/05/09 01:11:20;;;;;;;8.52;5.55;;;;;;;;;;5051589;28;20021;-48
2022/05/09 01:13:51;;;;;;;10.20;6.00;;;;;;;;;;5052569;28;20358;-47
2022/05/09 01:16:18;;;;;;;11.52;5.93;;;;;;;;;;5052657;28;20032;-47
2022/05/09 01:18:45;;;;;;;9.43;6.53;;;;;;;;;;5052639;28;20027;-47
2022/05/09 01:21:34;;;;;;;8.30;6.43;;;;;;;;;;5052540;28;20040;-47
2022/05/09 01:24:00;;;;;;;9.38;5.38;;;;;;;;;;5052561;28;20029;-49
2022/05/09 01:26:25;;;;;;;7.75;5.95;;;;;;;;;;5052232;28;20596;-47
2022/05/09 01:28:51;;;;;;;9.95;5.78;;;;;;;;;;5052223;28;20025;-48
2022/05/09 01:31:18;;;;;;;13.45;6.28;;;;;;;;;;5052487;28;20027;-47
2022/05/09 01:33:49;;;;;;;10.52;5.78;;;;;;;;;;5052142;28;20492;-49
2022/05/09 01:36:23;;;;;;;9.02;5.95;;;;;;;;;;5052157;28;20040;-48
2022/05/09 01:39:14;;;;;;;6.60;4.82;;;;;;;;;;5052460;28;20423;-47
2022/05/09 01:41:45;;;;;;;7.00;5.32;;;;;;;;;;5051940;28;20417;-46
2022/05/09 01:44:13;;;;;;;14.77;6.30;;;;;;;;;;5052407;28;20057;-48
2022/05/09 01:49:31;;;;;;;7.85;5.35;;;;;;;;;;5052475;28;20027;-47
2022/05/09 01:52:03;;;;;;;8.82;5.28;;;;;;;;;;5052081;28;20096;-46
2022/05/09 01:54:29;;;;;;;7.63;4.82;;;;;;;;;;5034727;28;20032;-49
2022/05/09 01:56:54;;;;;;;9.02;4.93;;;;;;;;;;5052040;28;20025;-47
2022/05/09 01:59:20;;;;;;;8.60;5.25;;;;;;;;;;5051956;28;20095;-49
2022/05/09 02:01:59;;;;;;;9.13;5.68;;;;;;;;;;5051992;28;20028;-49
2022/05/09 02:04:26;;;;;;;10.00;6.28;;;;;;;;;;5052263;28;20035;-48
2022/05/09 02:06:52;;;;;;;7.60;5.72;;;;;;;;;;5051913;28;20029;-49
2022/05/09 02:09:17;;;;;;;8.02;5.78;;;;;;;;;;5052155;28;20040;-48
2022/05/09 02:11:43;;;;;;;9.90;6.95;;;;;;;;;;5052166;28;20025;-49
2022/05/09 02:14:09;;;;;;;9.60;6.18;;;;;;;;;;5051775;28;20064;-48
2022/05/09 02:16:35;;;;;;;11.05;6.25;;;;;;;;;;5051819;28;20107;-47
2022/05/09 02:19:01;;;;;;;8.88;6.30;;;;;;;;;;5051759;28;20025;-47
2022/05/09 02:21:26;;;;;;;14.05;6.63;;;;;;;;;;5052941;28;20117;-47
2022/05/09 02:23:52;;;;;;;9.10;6.22;;;;;;;;;;5055545;28;20472;-49
2022/05/09 02:26:18;;;;;;;11.65;7.60;;;;;;;;;;5055512;28;20051;-48
2022/05/09 02:28:43;;;;;;;11.02;6.43;;;;;;;;;;5055484;28;20032;-48
2022/05/09 02:31:08;;;;;;;7.47;5.55;;;;;;;;;;5055652;28;20070;-49
2022/05/09 02:33:34;;;;;;;8.50;6.45;;;;;;;;;;5055522;28;20033;-49
2022/05/09 02:36:00;;;;;;;7.68;6.25;;;;;;;;;;5055310;28;20025;-47
2022/05/09 02:38:28;;;;;;;8.43;6.22;;;;;;;;;;5055242;28;20031;-47
2022/05/09 02:40:54;;;;;;;10.52;6.65;;;;;;;;;;5055492;28;20029;-48
2022/05/09 02:43:20;;;;;;;8.02;6.15;;;;;;;;;;5055341;28;20021;-47
2022/05/09 02:45:45;;;;;;;8.40;6.40;;;;;;;;;;5055073;28;20139;-51
2022/05/09 02:48:11;;;;;;;9.88;6.65;;;;;;;;;;5054932;28;20119;-47
2022/05/09 02:50:36;;;;;;;9.30;6.13;;;;;;;;;;5054973;28;20024;-49
2022/05/09 02:53:03;;;;;;;8.10;6.47;;;;;;;;;;5055058;28;20025;-47
2022/05/09 02:55:31;;;;;;;10.38;6.50;;;;;;;;;;5054909;28;20551;-50
2022/05/09 02:57:57;;;;;;;13.98;7.20;;;;;;;;;;5054898;28;20080;-48
2022/05/09 03:00:25;;;;;;;9.65;6.55;;;;;;;;;;5054784;28;20048;-47
2022/05/09 03:05:39;;;;;;;8.35;6.35;;;;;;;;;;5055154;28;20090;-50
2022/05/09 03:08:05;;;;;;;9.52;7.03;;;;;;;;;;5054619;28;20469;-48
2022/05/09 03:10:31;;;;;;;10.73;7.10;;;;;;;;;;5054577;28;20029;-50
2022/05/09 03:13:01;;;;;;;8.60;6.85;;;;;;;;;;5054764;28;20068;-48
2022/05/09 03:15:28;;;;;;;9.32;6.72;;;;;;;;;;5054867;28;20021;-49
2022/05/09 03:17:54;;;;;;;11.98;7.15;;;;;;;;;;5054730;28;20056;-50
2022/05/09 03:20:21;;;;;;;9.27;7.07;;;;;;;;;;5054844;28;20354;-50
2022/05/09 03:22:46;;;;;;;9.60;6.90;;;;;;;;;;5054704;28;20389;-50
2022/05/09 03:25:11;;;;;;;10.88;6.55;;;;;;;;;;5054410;28;20021;-53
2022/05/09 03:27:38;;;;;;;10.15;6.85;;;;;;;;;;5054624;28;20028;-54
2022/05/09 03:30:05;;;;;;;8.80;6.47;;;;;;;;;;5054284;28;20491;-53
2022/05/09 03:32:30;;;;;;;10.13;7.15;;;;;;;;;;5053846;28;20029;-53
2022/05/09 03:34:56;;;;;;;10.00;7.07;;;;;;;;;;5053920;28;20043;-50
2022/05/09 03:37:21;;;;;;;10.93;7.38;;;;;;;;;;5054148;28;20104;-52
2022/05/09 03:39:46;;;;;;;12.70;6.82;;;;;;;;;;5054051;28;20028;-50
2022/05/09 03:42:12;;;;;;;8.90;6.88;;;;;;;;;;5054249;28;20021;-53
2022/05/09 03:44:37;;;;;;;9.52;7.00;;;;;;;;;;5053994;28;20402;-53
2022/05/09 03:47:03;;;;;;;9.55;7.10;;;;;;;;;;5054219;28;20100;-52
2022/05/09 03:49:28;;;;;;;11.07;6.95;;;;;;;;;;5054144;28;20392;-52
2022/05/09 03:51:54;;;;;;;8.70;6.38;;;;;;;;;;5054118;28;20104;-52
2022/05/09 03:54:19;;;;;;;10.65;7.05;;;;;;;;;;5053683;28;20044;-49
2022/05/09 03:56:45;;;;;;;10.48;6.65;;;;;;;;;;5053998;28;20036;-50
2022/05/09 03:59:10;;;;;;;11.45;6.28;;;;;;;;;;5053501;28;20098;-51
2022/05/09 04:01:36;;;;;;;10.00;6.57;;;;;;;;;;5053907;28;20029;-50
2022/05/09 04:04:01;;;;;;;10.73;7.03;;;;;;;;;;5053914;28;20039;-53
2022/05/09 04:06:27;;;;;;;14.50;6.80;;;;;;;;;;5053776;28;20060;-49
2022/05/09 04:08:52;;;;;;;11.25;6.43;;;;;;;;;;5053417;28;20480;-53
2022/05/09 04:11:19;;;;;;;11.27;7.00;;;;;;;;;;5053354;28;20112;-52
2022/05/09 04:13:45;;;;;;;10.82;7.43;;;;;;;;;;5053573;28;20032;-51
2022/05/09 04:18:59;;;;;;;12.38;8.38;;;;;;;;;;5053662;28;20058;-54
2022/05/09 04:21:25;;;;;;;9.75;7.97;;;;;;;;;;5053514;28;20033;-52
2022/05/09 04:23:55;;;;;;;11.40;7.65;;;;;;;;;;5053577;28;20079;-51
2022/05/09 04:26:22;;;;;;;;;;;;;;;;;;5053929;28;20033;-51
2022/05/09 04:28:47;;;;;;;12.10;7.78;;;;;;;;;;5053192;28;20002;-53
2022/05/09 04:31:13;;;;;;;10.45;7.90;;;;;;;;;;5053080;28;20063;-54
2022/05/09 04:33:38;;;;;;;12.30;8.77;;;;;;;;;;5053208;28;20033;-53
2022/05/09 04:36:04;;;;;;;11.75;7.57;;;;;;;;;;5053278;28;20021;-50
2022/05/09 04:38:29;;;;;;;8.80;7.50;;;;;;;;;;5035565;28;20025;-47
2022/05/09 04:40:56;;;;;;;10.65;7.25;;;;;;;;;;5053216;28;20036;-49
2022/05/09 04:43:28;;;;;;;8.18;6.70;;;;;;;;;;5053179;28;20115;-51
2022/05/09 04:45:54;;;;;;;14.23;7.10;;;;;;;;;;5053056;28;20411;-51
2022/05/09 04:48:21;;;;;;;15.02;6.80;;;;;;;;;;5053152;28;20040;-50
2022/05/09 04:50:48;;;;;;;14.32;8.55;;;;;;;;;;5053069;28;20376;-53
2022/05/09 04:53:14;;;;;;;14.18;8.48;;;;;;;;;;5052656;28;20480;-50
2022/05/09 04:55:40;;;;;;;10.38;7.35;;;;;;;;;;5052986;28;20113;-51
2022/05/09 04:58:05;;;;;;;17.67;8.50;;;;;;;;;;5052750;28;20025;-53
2022/05/09 05:00:31;;;;;;;9.82;7.88;;;;;;;;;;5052917;28;20068;-53
2022/05/09 05:02:57;;;;;;;10.00;7.60;;;;;;;;;;5052615;28;20579;-53
2022/05/09 05:05:24;;;;;;;10.15;7.88;;;;;;;;;;5052735;28;20104;-51
2022/05/09 05:07:50;;;;;;;10.73;7.93;;;;;;;;;;5052504;28;20029;-52
2022/05/09 05:10:16;;;;;;;15.13;8.68;;;;;;;;;;5052709;28;20053;-55
2022/05/09 05:12:42;;;;;;;13.30;7.38;;;;;;;;;;5052790;28;20474;-55
2022/05/09 05:15:08;;;;;;;11.15;7.82;;;;;;;;;;5052613;28;20120;-53
2022/05/09 05:17:35;;;;;;;13.98;8.40;;;;;;;;;;5052668;28;20021;-49
2022/05/09 05:20:02;;;;;;;13.50;7.93;;;;;;;;;;5052539;28;20043;-50
2022/05/09 05:22:28;;;;;;;10.95;7.63;;;;;;;;;;5052374;28;20395;-52
2022/05/09 05:24:54;;;;;;;11.82;7.13;;;;;;;;;;5052591;28;20025;-52
2022/05/09 05:27:23;;;;;;;17.27;7.53;;;;;;;;;;5052563;28;20025;-55
2022/05/09 05:29:49;;;;;;;10.93;6.78;;;;;;;;;;5052611;28;20079;-54
2022/05/09 05:32:21;;;;;;;10.50;7.18;;;;;;;;;;5052235;28;20537;-51
2022/05/09 05:34:47;;;;;;;9.27;7.18;;;;;;;;;;5035015;28;20040;-57
2022/05/09 05:37:13;;;;;;;11.60;6.38;;;;;;;;;;5034775;28;20029;-55
2022/05/09 05:39:40;;;;;;;8.20;6.72;;;;;;;;;;5052448;28;20021;-54
2022/05/09 05:42:06;;;;;;;8.50;5.55;;;;;;;;;;5052398;28;20091;-53
2022/05/09 05:44:32;;;;;;;7.03;5.90;;;;;;;;;;5052380;28;20029;-56
2022/05/09 05:46:57;;;;;;;7.95;6.25;;;;;;;;;;5052014;28;20021;-56
2022/05/09 05:49:22;;;;;;;8.73;6.30;;;;;;;;;;5052075;28;20048;-54
2022/05/09 05:51:48;;;;;;;8.52;6.07;;;;;;;;;;5052246;28;20040;-52
2022/05/09 05:54:13;;;;;;;7.75;5.68;;;;;;;;;;5052249;28;20087;-56
2022/05/09 05:56:38;;;;;;;7.57;5.35;;;;;;;;;;5053580;28;20545;-53
2022/05/09 05:59:04;;;;;;;10.43;6.20;;;;;;;;;;5055834;28;20049;-56
2022/05/09 06:01:30;;;;;;;11.38;6.55;;;;;;;;;;5055863;28;20500;-56
2022/05/09 06:03:56;;;;;;;10.50;6.53;;;;;;;;;;5055783;28;20100;-57
2022/05/09 06:06:21;;;;;;;7.65;5.60;;;;;;;;;;5055869;28;20033;-54
2022/05/09 06:08:48;;;;;;;6.07;5.45;;;;;;;;;;5055900;28;20029;-54
2022/05/09 06:11:13;;;;;;;10.70;5.53;;;;;;;;;;5055443;28;20033;-57
2022/05/09 06:13:40;;;;;;;9.85;6.43;;;;;;;;;;5055523;28;20066;-57
2022/05/09 06:16:05;;;;;;;9.68;6.43;;;;;;;;;;5055953;28;20100;-57
2022/05/09 06:18:31;;;;;;;8.82;5.70;;;;;;;;;;5055917;28;20398;-57
2022/05/09 06:20:56;;;;;;;8.15;5.50;;;;;;;;;;5055926;28;20135;-57
2022/05/09 06:23:22;;;;;;;7.78;5.53;;;;;;;;;;5055616;28;20056;-57
2022/05/09 06:25:48;;;;;;;7.55;5.53;;;;;;;;;;5055752;28;20021;-56
2022/05/09 06:28:15;;;;;;;6.57;5.75;;;;;;;;;;5055459;28;20370;-58
2022/05/09 06:30:42;;;;;;;7.65;4.93;;;;;;;;;;5055668;28;20036;-56
2022/05/09 06:33:08;;;;;;;7.28;4.72;;;;;;;;;;5055174;28;20024;-56
2022/05/09 06:35:41;;;;;;;8.85;7.00;;;;;;;;;;5055605;28;20098;-53
2022/05/09 06:38:07;;;;;;;5.45;4.22;;;;;;;;;;5055634;28;20021;-52
2022/05/09 06:40:35;;;;;;;9.57;5.60;;;;;;;;;;5055483;28;20427;-56
2022/05/09 06:43:03;;;;;;;5.07;3.95;;;;;;;;;;5055164;28;20492;-53
2022/05/09 06:45:29;;;;;;;8.45;4.35;;;;;;;;;;5055073;28;20041;-54
2022/05/09 06:47:56;;;;;;;6.72;4.13;;;;;;;;;;5055399;28;20415;-50
2022/05/09 06:50:24;;;;;;;5.88;4.25;;;;;;;;;;5055203;28;20025;-48
2022/05/09 06:52:50;;;;;;;5.15;4.50;;;;;;;;;;5055288;28;20055;-51
2022/05/09 06:55:15;;;;;;;5.22;3.38;;;;;;;;;;5055220;28;20029;-50
2022/05/09 06:57:43;;;;;;;3.10;2.78;;;;;;;;;;5037488;28;20101;-49
2022/05/09 07:00:13;;;;;;;8.85;4.85;;;;;;;;;;5054687;28;20076;-49
2022/05/09 07:02:38;;;;;;;3.92;2.38;;;;;;;;;;5054764;28;20112;-48
2022/05/09 07:05:06;;;;;;;17.10;4.80;;;;;;;;;;5037031;28;20175;-52
2022/05/09 07:07:32;;;;;;;7.13;5.53;;;;;;;;;;5054188;28;20078;-52
2022/05/09 07:09:57;;;;;;;4.97;3.60;;;;;;;;;;5054218;28;20104;-49
2022/05/09 07:12:23;;;;;;;8.13;4.60;;;;;;;;;;5054838;28;20178;-50
2022/05/09 07:14:48;;;;;;;3.83;3.20;;;;;;;;;;5054498;28;20488;-50
2022/05/09 07:17:13;;;;;;;7.85;4.88;;;;;;;;;;5054871;28;20029;-47
2022/05/09 07:19:39;;;;;;;6.00;4.53;;;;;;;;;;5054421;28;20021;-54
2022/05/09 07:22:04;;;;;;;6.82;4.30;;;;;;;;;;5054658;28;20059;-52
2022/05/09 07:24:30;;;;;;;4.50;4.07;;;;;;;;;;5054396;28;20670;-53
2022/05/09 07:26:56;;;;;;;6.65;4.15;;;;;;;;;;5054270;28;20373;-53
2022/05/09 07:29:21;;;;;;;5.05;3.97;;;;;;;;;;5054236;28;20089;-55
2022/05/09 07:31:46;;;;;;;5.72;3.92;;;;;;;;;;5054238;28;20033;-51
2022/05/09 07:34:12;;;;;;;4.22;3.50;;;;;;;;;;5054317;28;20031;-52
2022/05/09 07:36:37;;;;;;;8.05;4.90;;;;;;;;;;5054470;28;20389;-48
2022/05/09 07:39:03;;;;;;;5.70;4.70;;;;;;;;;;5054116;28;20426;-47
2022/05/09 07:41:28;;;;;;;5.35;4.20;;;;;;;;;;5054379;28;20033;-49
2022/05/09 07:43:54;;;;;;;9.80;4.72;;;;;;;;;;5053967;28;20028;-48
2022/05/09 07:46:19;;;;;;;10.90;4.63;;;;;;;;;;5054307;28;20441;-50
2022/05/09 07:48:46;;;;;;;9.30;4.88;;;;;;;;;;5054154;28;20491;-48
2022/05/09 07:51:14;;;;;;;5.25;4.70;;;;;;;;;;5054134;28;20036;-51
2022/05/09 07:53:40;;;;;;;8.02;4.43;;;;;;;;;;5053726;28;20120;-49
2022/05/09 07:56:06;;;;;;;4.80;4.10;;;;;;;;;;5053945;28;20159;-51
2022/05/09 07:58:32;;;;;;;3.78;3.03;;;;;;;;;;5053767;28;20041;-49
2022/05/09 08:00:59;;;;;;;3.88;3.17;;;;;;;;;;5053919;28;20036;-47
2022/05/09 08:03:26;;;;;;;5.13;3.08;;;;;;;;;;5053883;28;20040;-47
2022/05/09 08:05:53;;;;;;;5.43;3.75;;;;;;;;;;5053766;28;20427;-50
2022/05/09 08:08:19;;;;;;;6.07;4.22;;;;;;;;;;5053334;28;20469;-51
2022/05/09 08:10:45;;;;;;;6.13;4.18;;;;;;;;;;5053740;28;20035;-48
2022/05/09 08:13:13;;;;;;;6.68;4.72;;;;;;;;;;5053366;28;20032;-45
2022/05/09 08:15:39;;;;;;;6.25;4.47;;;;;;;;;;5053376;28;20143;-49
2022/05/09 08:18:05;;;;;;;4.57;3.47;;;;;;;;;;5053356;28;20056;-48
2022/05/09 08:20:34;;;;;;;5.43;3.40;;;;;;;;;;5052920;28;20075;-47
2022/05/09 08:23:06;;;;;;;4.18;3.53;;;;;;;;;;5053300;28;20057;-47
2022/05/09 08:25:36;;;;;;;6.30;4.47;;;;;;;;;;5053591;28;20102;-47
2022/05/09 08:28:02;;;;;;;4.93;4.38;;;;;;;;;;5053230;28;20380;-48
2022/05/09 08:30:33;;;;;;;10.15;4.28;;;;;;;;;;5053310;28;20028;-48
2022/05/09 08:33:07;;;;;;;9.52;4.03;;;;;;;;;;5053244;28;20025;-50
2022/05/09 08:35:33;;;;;;;3.85;3.00;;;;;;;;;;5053032;28;20488;-47
2022/05/09 08:37:59;;;;;;;6.50;4.45;;;;;;;;;;5053167;28;20031;-49
2022/05/09 08:40:34;;;;;;;7.47;4.50;;;;;;;;;;5053169;28;20017;-50
2022/05/09 08:43:16;;;;;;;5.10;4.18;;;;;;;;;;5052841;28;20116;-48
2022/05/09 08:45:48;;;;;;;6.07;3.80;;;;;;;;;;5052853;28;20636;-45
2022/05/09 08:48:22;;;;;;;5.75;3.70;;;;;;;;;;5052676;28;20081;-47
2022/05/09 08:50:47;;;;;;;6.63;4.05;;;;;;;;;;5052998;28;20025;-49
2022/05/09 08:53:19;;;;;;;4.85;4.30;;;;;;;;;;5052925;28;20461;-48
2022/05/09 08:55:45;;;;;;;7.25;4.80;;;;;;;;;;5052984;28;20029;-50
2022/05/09 08:58:14;;;;;;;6.80;4.70;;;;;;;;;;5052450;28;20484;-47
2022/05/09 09:00:40;;;;;;;5.05;3.90;;;;;;;;;;5052614;28;20033;-46
2022/05/09 09:03:24;;;;;;;3.22;2.83;;;;;;;;;;5052286;28;20033;-52
2022/05/09 09:05:52;;;;;;;4.43;4.03;;;;;;;;;;5052735;28;20021;-46
2022/05/09 09:08:37;;;;;;;4.78;3.70;;;;;;;;;;5052718;28;20024;-47
2022/05/09 09:11:41;;;;;;;4.70;4.30;;;;;;;;;;5052300;28;20108;-48
2022/05/09 09:14:23;;;;;;;4.78;4.38;;;;;;;;;;5052648;28;20029;-49
2022/05/09 09:16:58;;;;;;;4.72;3.50;;;;;;;;;;5052219;28;20020;-45
2022/05/09 09:19:45;;;;;;;5.32;4.43;;;;;;;;;;5052434;28;20388;-49
2022/05/09 09:22:41;;;;;;;4.55;3.78;;;;;;;;;;5052225;28;20100;-50
2022/05/09 09:25:59;;;;;;;4.45;3.80;;;;;;;;;;5052510;28;20036;-46
2022/05/09 09:28:47;;;;;;;5.10;3.50;;;;;;;;;;5036226;28;20037;-53
2022/05/09 09:31:18;;;;;;;3.92;3.60;;;;;;;;;;5051490;28;20036;-53
2022/05/09 09:33:54;;;;;;;6.13;3.58;;;;;;;;;;5052410;28;20139;-49
2022/05/09 09:36:22;;;;;;;6.07;3.72;;;;;;;;;;5052190;28;20031;-53
2022/05/09 09:39:22;;;;;;;3.80;3.00;;;;;;;;;;5052140;28;20021;-55
2022/05/09 09:41:50;;;;;;;5.28;3.88;;;;;;;;;;5007239;28;20114;-50
2022/05/09 09:44:24;;;;;;;4.22;3.83;;;;;;;;;;5050475;28;20040;-51
2022/05/09 09:47:24;;;;;;;4.82;2.97;;;;;;;;;;5050593;28;20043;-50
2022/05/09 09:50:12;;;;;;;10.45;4.97;;;;;;;;;;5050490;28;20104;-50
2022/05/09 09:52:43;;;;;;;17.45;6.20;;;;;;;;;;5049643;28;20083;-50
2022/05/09 09:55:21;;;;;;;8.70;6.05;;;;;;;;;;5050207;28;20107;-51
2022/05/09 09:57:48;;;;;;;6.35;3.22;;;;;;;;;;5050701;28;20052;-49
2022/05/09 10:00:17;;;;;;;4.03;3.70;;;;;;;;;;5050985;28;20056;-48
2022/05/09 10:02:43;;;;;;;10.20;4.30;;;;;;;;;;5052140;28;20033;-50
2022/05/09 10:05:13;;;;;;;5.65;3.70;;;;;;;;;;5051727;28;20369;-52
2022/05/09 10:07:43;;;;;;;8.48;3.70;;;;;;;;;;5051578;28;20028;-51
2022/05/09 10:10:24;;;;;;;4.65;3.83;;;;;;;;;;5049943;28;20025;-53
2022/05/09 10:12:50;;;;;;;3.92;2.92;;;;;;;;;;5050547;28;20040;-51
2022/05/09 10:15:34;;;;;;;5.57;4.45;;;;;;;;;;5049970;28;20444;-49
2022/05/09 10:18:16;;;;;;;4.13;3.72;;;;;;;;;;5046009;28;20096;-53
2022/05/09 10:20:41;;;;;;;8.10;3.58;;;;;;;;;;5050627;28;20039;-52
2022/05/09 10:26:31;;;;;;;6.18;3.50;;;;;;;;;;5050377;28;20110;-50
2022/05/09 10:29:04;;;;;;;5.97;3.80;;;;;;;;;;5050262;28;20029;-49
2022/05/09 10:31:35;;;;;;;4.45;2.92;;;;;;;;;;5050033;28;20477;-51
2022/05/09 10:34:35;;;;;;;4.13;3.60;;;;;;;;;;5050355;28;20036;-52
2022/05/09 10:37:20;;;;;;;2.72;2.47;;;;;;;;;;5045806;28;20043;-50
2022/05/09 10:39:59;;;;;;;4.72;4.32;;;;;;;;;;5049971;28;20074;-49
2022/05/09 10:42:34;;;;;;;6.28;4.20;;;;;;;;;;5050846;28;20029;-50
2022/05/09 10:45:09;;;;;;;4.40;3.42;;;;;;;;;;5053767;28;20056;-50
2022/05/09 10:48:05;;;;;;;5.85;2.40;;;;;;;;;;5053752;28;20017;-51
2022/05/09 10:50:38;;;;;;;7.65;3.25;;;;;;;;;;5053771;28;20032;-54
2022/05/09 10:53:17;;;;;;;6.13;4.05;;;;;;;;;;5053291;28;20029;-50
2022/05/09 10:55:59;;;;;;;4.60;3.80;;;;;;;;;;5053319;28;20484;-54
2022/05/09 10:58:35;;;;;;;3.75;3.45;;;;;;;;;;5053223;28;20056;-50
2022/05/09 11:01:25;;;;;;;5.43;4.10;;;;;;;;;;5053270;28;20033;-67
2022/05/09 11:03:53;;;;;;;5.72;4.00;;;;;;;;;;5052954;28;20420;-67
2022/05/09 11:06:25;;;;;;;4.43;3.35;;;;;;;;;;5052005;28;20032;-69
2022/05/09 11:09:00;;;;;;;3.55;3.20;;;;;;;;;;5051966;28;20362;-65
2022/05/09 11:11:34;;;;;;;4.25;3.85;;;;;;;;;;5052384;28;20031;-69
2022/05/09 11:14:10;;;;;;;4.25;3.20;;;;;;;;;;5050723;28;20123;-67
2022/05/09 11:16:53;;;;;;;4.57;3.58;;;;;;;;;;5050681;28;20029;-69
2022/05/09 11:19:29;;;;;;;12.60;4.35;;;;;;;;;;5051776;28;20590;-61
2022/05/09 11:22:26;;;;;;;4.20;3.67;;;;;;;;;;5053073;28;20041;-65
2022/05/09 11:25:01;;;;;;;4.10;3.70;;;;;;;;;;5052794;28;20102;-62
2022/05/09 11:27:39;;;;;;;4.82;3.70;;;;;;;;;;5051231;28;20086;-64
2022/05/09 11:30:04;;;;;;;7.80;4.93;;;;;;;;;;5052940;28;20094;-64
2022/05/09 11:32:46;;;;;;;6.05;3.88;;;;;;;;;;5052118;28;20524;-64
2022/05/09 11:35:15;;;;;;;5.35;4.00;;;;;;;;;;5052703;28;20052;-64
2022/05/09 11:37:55;;;;;;;5.75;3.40;;;;;;;;;;5052598;28;20037;-61
2022/05/09 11:40:26;;;;;;;4.28;2.75;;;;;;;;;;5034558;28;20043;-64
2022/05/09 11:43:28;;;;;;;5.07;3.03;;;;;;;;;;5052704;28;20028;-62
2022/05/09 11:45:59;;;;;;;6.40;3.13;;;;;;;;;;5052664;28;20025;-63
2022/05/09 11:48:42;;;;;;;4.05;3.30;;;;;;;;;;5052403;28;20040;-56
2022/05/09 11:51:24;;;;;;;6.45;3.45;;;;;;;;;;5052648;28;20039;-62
2022/05/09 11:53:57;;;;;;;3.80;3.40;;;;;;;;;;5051949;28;20121;-63
2022/05/09 11:56:24;;;;;;;4.35;3.42;;;;;;;;;;5052163;28;20033;-62
2022/05/09 11:58:50;;;;;;;6.60;4.75;;;;;;;;;;5052250;28;20053;-66
2022/05/09 12:01:15;;;;;;;3.88;3.58;;;;;;;;;;5052477;28;20094;-65
2022/05/09 12:03:41;;;;;;;5.32;3.55;;;;;;;;;;5051939;28;20488;-62
2022/05/09 12:06:28;;;;;;;4.55;3.58;;;;;;;;;;5052202;28;20064;-65
2022/05/09 12:08:55;;;;;;;5.40;4.25;;;;;;;;;;5051838;28;20025;-65
2022/05/09 12:11:29;;;;;;;6.82;3.80;;;;;;;;;;5052099;28;20037;-64
2022/05/09 12:13:57;;;;;;;5.60;3.53;;;;;;;;;;5052099;28;20029;-63
2022/05/09 12:16:44;;;;;;;4.47;3.47;;;;;;;;;;5051687;28;20021;-64
2022/05/09 12:19:33;;;;;;;5.45;3.33;;;;;;;;;;5061096;28;20043;-54
2022/05/09 12:22:19;;;;;;;15.02;5.53;;;;;;;;;;5070914;28;20557;-64
2022/05/09 12:24:44;;;;;;;10.52;4.32;;;;;;;;;;5071232;28;20533;-60
2022/05/09 12:27:43;;;;;;;9.75;4.20;;;;;;;;;;5070632;28;20044;-60
2022/05/09 12:30:33;;;;;;;5.37;4.17;;;;;;;;;;5059993;28;20035;-65
2022/05/09 12:32:59;;;;;;;5.15;3.83;;;;;;;;;;5061046;28;20266;-61
2022/05/09 12:35:24;;;;;;;6.47;4.32;;;;;;;;;;5051839;28;20033;-62
2022/05/09 12:37:50;;;;;;;7.72;5.00;;;;;;;;;;5051718;28;20492;-60
2022/05/09 12:40:24;;;;;;;4.93;4.10;;;;;;;;;;5051524;28;20104;-64
2022/05/09 12:42:55;;;;;;;4.30;3.90;;;;;;;;;;5051335;28;20029;-55
2022/05/09 12:45:21;;;;;;;4.82;3.70;;;;;;;;;;5051385;28;20035;-62
2022/05/09 12:47:48;;;;;;;4.30;3.53;;;;;;;;;;5050985;28;20473;-69
2022/05/09 12:50:24;;;;;;;4.70;3.80;;;;;;;;;;5051502;28;20033;-54
2022/05/09 12:53:04;;;;;;;8.10;5.15;;;;;;;;;;5055732;28;20037;-66
2022/05/09 12:55:53;;;;;;;12.05;4.22;;;;;;;;;;5061058;28;20032;-62
2022/05/09 12:58:32;;;;;;;4.85;3.90;;;;;;;;;;5060366;28;20052;-49
2022/05/09 13:01:03;;;;;;;6.15;4.68;;;;;;;;;;5059923;28;20053;-53
2022/05/09 13:03:29;;;;;;;8.43;5.13;;;;;;;;;;5059760;28;20041;-67
2022/05/09 13:05:55;;;;;;;6.70;4.95;;;;;;;;;;5060201;28;20380;-49
2022/05/09 13:08:20;;;;;;;5.68;4.35;;;;;;;;;;5060750;28;20032;-51
2022/05/09 13:10:51;;;;;;;5.60;4.53;;;;;;;;;;5065511;28;20029;-53
2022/05/09 13:13:36;;;;;;;4.03;3.35;;;;;;;;;;5060097;28;20029;-52
2022/05/09 13:16:03;;;;;;;6.70;3.75;;;;;;;;;;5050752;28;20033;-68
2022/05/09 13:18:30;;;;;;;3.97;3.35;;;;;;;;;;5045000;28;20036;-52
2022/05/09 13:21:04;;;;;;;6.35;3.67;;;;;;;;;;5059656;28;20025;-54
2022/05/09 13:23:40;;;;;;;10.88;4.03;;;;;;;;;;5043026;28;20036;-69
2022/05/09 13:26:09;;;;;;;6.82;3.30;;;;;;;;;;5064989;28;20502;-62
2022/05/09 13:28:53;;;;;;;4.43;3.20;;;;;;;;;;5070932;28;20391;-48
2022/05/09 13:31:30;;;;;;;4.22;2.95;;;;;;;;;;5070987;28;20099;-48
2022/05/09 13:33:56;;;;;;;8.30;3.50;;;;;;;;;;5070616;28;20028;-53
2022/05/09 13:36:37;;;;;;;3.75;3.33;;;;;;;;;;5070576;28;20472;-56
2022/05/09 13:39:04;;;;;;;3.63;3.30;;;;;;;;;;5070970;28;20111;-59
2022/05/09 13:41:29;;;;;;;2.70;2.30;;;;;;;;;;5070760;28;20027;-64
2022/05/09 13:43:57;;;;;;;3.83;2.50;;;;;;;;;;5070735;28;20033;-53
2022/05/09 13:46:36;;;;;;;3.30;2.92;;;;;;;;;;5070752;28;20376;-50
2022/05/09 13:49:05;;;;;;;7.57;3.30;;;;;;;;;;5070592;28;20035;-53
2022/05/09 13:51:34;;;;;;;6.15;3.30;;;;;;;;;;5070322;28;20510;-49
2022/05/09 13:54:09;;;;;;;18.90;3.78;;;;;;;;;;5052800;28;20021;-49
2022/05/09 13:56:36;;;;;;;7.70;4.60;;;;;;;;;;5067501;28;20112;-56
2022/05/09 13:59:06;;;;;;;6.55;4.07;;;;;;;;;;5061432;28;20035;-54
2022/05/09 14:01:41;;;;;;;9.05;4.07;;;;;;;;;;5070275;28;20059;-61
2022/05/09 14:04:09;;;;;;;6.22;4.30;;;;;;;;;;5069826;28;20025;-53
2022/05/09 14:06:36;;;;;;;5.70;4.00;;;;;;;;;;5070521;28;20105;-60
2022/05/09 14:09:14;;;;;;;4.97;4.10;;;;;;;;;;5070528;28;20044;-58
2022/05/09 14:11:58;;;;;;;12.70;3.65;;;;;;;;;;5070207;28;20107;-55
2022/05/09 14:14:39;;;;;;;5.88;4.00;;;;;;;;;;5069689;28;20032;-48
2022/05/09 14:17:24;;;;;;;5.03;4.00;;;;;;;;;;5053824;28;20037;-48
2022/05/09 14:19:54;;;;;;;4.82;4.32;;;;;;;;;;5058115;28;20037;-48
2022/05/09 14:22:22;;;;;;;6.05;4.20;;;;;;;;;;5071424;28;20081;-49
2022/05/09 14:30:34;;;;;;;5.85;4.07;;;;;;;;;;5074089;28;20043;-47
2022/05/09 14:33:00;;;;;;;7.90;4.20;;;;;;;;;;5056777;28;20037;-52
2022/05/09 14:35:45;;;;;;;5.28;3.72;;;;;;;;;;5053594;28;20055;-60
2022/05/09 14:38:53;;;;;;;12.40;4.10;;;;;;;;;;5053973;28;20068;-61
2022/05/09 14:44:17;;;;;;;4.18;3.58;;;;;;;;;;5051092;28;20039;-48
2022/05/09 14:47:04;;;;;;;4.97;3.63;;;;;;;;;;5053760;28;20108;-51
2022/05/09 14:49:40;;;;;;;3.47;3.17;;;;;;;;;;5053180;28;20041;-46
2022/05/09 14:52:18;;;;;;;5.90;4.40;;;;;;;;;;5053370;28;20119;-55
2022/05/09 14:57:25;;;;;;;9.95;4.90;;;;;;;;;;5053602;28;20384;-67
2022/05/09 14:57:49;;;;;;;7.07;4.55;;;;;;;;;;5053054;28;20068;-52
2022/05/09 15:00:14;;;;;;;8.95;4.38;;;;;;;;;;5053579;28;20025;-58
2022/05/09 15:02:57;;;;;;;9.15;5.10;;;;;;;;;;5052947;28;20566;-63
2022/05/09 15:05:23;;;;;;;5.40;4.18;;;;;;;;;;5053450;28;20115;-47
2022/05/09 15:07:48;;;;;;;9.43;4.60;;;;;;;;;;5052992;28;20465;-58
2022/05/09 15:10:14;;;;;;;6.38;4.05;;;;;;;;;;5053258;28;20025;-53
2022/05/09 15:12:42;;;;;;;6.57;4.78;;;;;;;;;;5040450;28;20021;-58
2022/05/09 15:15:08;;;;;;;7.78;5.13;;;;;;;;;;5068250;28;20041;-63
2022/05/09 15:17:33;;;;;;;9.95;4.88;;;;;;;;;;5072811;28;20032;-54
2022/05/09 15:19:59;;;;;;;7.85;4.40;;;;;;;;;;5071696;28;20069;-63
2022/05/09 15:22:24;;;;;;;6.68;4.93;;;;;;;;;;5072448;28;20028;-62